sensor_id;sensor_type;location;lat;lon;timestamp;P1;durP1;ratioP1;P2;durP2;ratioP2
10319;SDS011;5205;52.168;5.420;2023-07-30T00:01:08;4.93;;;1.65;;
10319;SDS011;5205;52.168;5.420;2023-07-30T00:03:35;4.82;;;1.73;;
10319;SDS011;5205;52.168;5.420;2023-07-30T00:06:02;6.93;;;1.75;;
10319;SDS011;5205;52.168;5.420;2023-07-30T00:08:30;6.97;;;1.50;;
10319;SDS011;5205;52.168;5.420;2023-07-30T00:10:57;8.63;;;1.95;;
10319;SDS011;5205;52.168;5.420;2023-07-30T00:13:24;4.70;;;1.55;;
10319;SDS011;5205;52.168;5.420;2023-07-30T00:15:53;6.43;;;1.70;;
10319;SDS011;5205;52.168;5.420;2023-07-30T00:18:20;6.55;;;1.60;;
10319;SDS011;5205;52.168;5.420;2023-07-30T00:20:47;9.63;;;1.90;;
10319;SDS011;5205;52.168;5.420;2023-07-30T00:23:14;6.43;;;1.38;;
10319;SDS011;5205;52.168;5.420;2023-07-30T00:25:41;10.93;;;4.35;;
10319;SDS011;5205;52.168;5.420;2023-07-30T00:28:08;8.07;;;1.80;;
10319;SDS011;5205;52.168;5.420;2023-07-30T00:30:35;4.53;;;1.60;;
10319;SDS011;5205;52.168;5.420;2023-07-30T00:33:04;7.50;;;1.33;;
10319;SDS011;5205;52.168;5.420;2023-07-30T00:35:31;7.18;;;1.92;;
10319;SDS011;5205;52.168;5.420;2023-07-30T00:37:58;8.13;;;1.75;;
10319;SDS011;5205;52.168;5.420;2023-07-30T00:40:25;4.00;;;1.40;;
10319;SDS011;5205;52.168;5.420;2023-07-30T00:42:52;7.22;;;1.98;;
10319;SDS011;5205;52.168;5.420;2023-07-30T00:45:19;7.70;;;1.45;;
10319;SDS011;5205;52.168;5.420;2023-07-30T00:47:47;11.88;;;2.22;;
10319;SDS011;5205;52.168;5.420;2023-07-30T00:50:15;6.90;;;1.85;;
10319;SDS011;5205;52.168;5.420;2023-07-30T00:52:43;9.77;;;1.90;;
10319;SDS011;5205;52.168;5.420;2023-07-30T00:55:10;7.15;;;1.88;;
10319;SDS011;5205;52.168;5.420;2023-07-30T00:57:37;7.55;;;2.13;;
10319;SDS011;5205;52.168;5.420;2023-07-30T01:00:05;5.88;;;1.70;;
10319;SDS011;5205;52.168;5.420;2023-07-30T01:02:34;5.55;;;1.55;;
10319;SDS011;5205;52.168;5.420;2023-07-30T01:05:02;7.43;;;2.45;;
10319;SDS011;5205;52.168;5.420;2023-07-30T01:07:30;8.32;;;2.10;;
10319;SDS011;5205;52.168;5.420;2023-07-30T01:09:58;6.82;;;1.38;;
10319;SDS011;5205;52.168;5.420;2023-07-30T01:12:25;11.25;;;1.90;;
10319;SDS011;5205;52.168;5.420;2023-07-30T01:14:53;7.20;;;2.15;;
10319;SDS011;5205;52.168;5.420;2023-07-30T01:17:21;5.55;;;1.80;;
10319;SDS011;5205;52.168;5.420;2023-07-30T01:19:48;7.55;;;1.95;;
10319;SDS011;5205;52.168;5.420;2023-07-30T01:22:20;7.55;;;1.98;;
10319;SDS011;5205;52.168;5.420;2023-07-30T01:24:48;7.53;;;1.80;;
10319;SDS011;5205;52.168;5.420;2023-07-30T01:27:16;7.55;;;1.92;;
10319;SDS011;5205;52.168;5.420;2023-07-30T01:29:48;4.28;;;1.60;;
10319;SDS011;5205;52.168;5.420;2023-07-30T01:32:17;5.53;;;2.15;;
10319;SDS011;5205;52.168;5.420;2023-07-30T01:34:45;6.72;;;1.85;;
10319;SDS011;5205;52.168;5.420;2023-07-30T01:37:13;11.45;;;2.00;;
10319;SDS011;5205;52.168;5.420;2023-07-30T01:39:43;10.98;;;2.53;;
10319;SDS011;5205;52.168;5.420;2023-07-30T01:42:11;6.70;;;1.77;;
10319;SDS011;5205;52.168;5.420;2023-07-30T01:44:38;7.70;;;1.83;;
10319;SDS011;5205;52.168;5.420;2023-07-30T01:47:05;9.32;;;2.00;;
10319;SDS011;5205;52.168;5.420;2023-07-30T01:49:32;9.45;;;2.20;;
10319;SDS011;5205;52.168;5.420;2023-07-30T01:52:00;10.32;;;2.17;;
10319;SDS011;5205;52.168;5.420;2023-07-30T01:54:27;7.68;;;2.10;;
10319;SDS011;5205;52.168;5.420;2023-07-30T01:56:55;14.02;;;2.20;;
10319;SDS011;5205;52.168;5.420;2023-07-30T01:59:23;8.50;;;1.77;;
10319;SDS011;5205;52.168;5.420;2023-07-30T02:01:50;10.23;;;2.72;;
10319;SDS011;5205;52.168;5.420;2023-07-30T02:04:17;6.88;;;1.83;;
10319;SDS011;5205;52.168;5.420;2023-07-30T02:06:44;13.60;;;2.08;;
10319;SDS011;5205;52.168;5.420;2023-07-30T02:09:11;11.68;;;1.95;;
10319;SDS011;5205;52.168;5.420;2023-07-30T02:11:38;10.20;;;2.08;;
10319;SDS011;5205;52.168;5.420;2023-07-30T02:14:07;15.35;;;2.72;;
10319;SDS011;5205;52.168;5.420;2023-07-30T02:16:34;11.43;;;2.35;;
10319;SDS011;5205;52.168;5.420;2023-07-30T02:19:01;8.77;;;2.00;;
10319;SDS011;5205;52.168;5.420;2023-07-30T02:21:28;8.77;;;2.03;;
10319;SDS011;5205;52.168;5.420;2023-07-30T02:23:57;12.90;;;2.50;;
10319;SDS011;5205;52.168;5.420;2023-07-30T02:26:24;9.25;;;2.10;;
10319;SDS011;5205;52.168;5.420;2023-07-30T02:28:51;15.02;;;2.55;;
10319;SDS011;5205;52.168;5.420;2023-07-30T02:31:20;9.40;;;1.90;;
10319;SDS011;5205;52.168;5.420;2023-07-30T02:33:47;8.48;;;2.08;;
10319;SDS011;5205;52.168;5.420;2023-07-30T02:36:14;11.80;;;2.40;;
10319;SDS011;5205;52.168;5.420;2023-07-30T02:38:41;9.63;;;2.72;;
10319;SDS011;5205;52.168;5.420;2023-07-30T02:41:08;9.32;;;2.22;;
10319;SDS011;5205;52.168;5.420;2023-07-30T02:43:35;10.30;;;2.40;;
10319;SDS011;5205;52.168;5.420;2023-07-30T02:46:02;8.40;;;2.40;;
10319;SDS011;5205;52.168;5.420;2023-07-30T02:48:33;9.20;;;2.22;;
10319;SDS011;5205;52.168;5.420;2023-07-30T02:51:00;10.80;;;2.53;;
10319;SDS011;5205;52.168;5.420;2023-07-30T02:53:27;14.65;;;3.05;;
10319;SDS011;5205;52.168;5.420;2023-07-30T02:55:54;11.02;;;1.98;;
10319;SDS011;5205;52.168;5.420;2023-07-30T02:58:21;9.93;;;2.65;;
10319;SDS011;5205;52.168;5.420;2023-07-30T03:00:48;10.65;;;3.22;;
10319;SDS011;5205;52.168;5.420;2023-07-30T03:03:16;10.85;;;2.55;;
10319;SDS011;5205;52.168;5.420;2023-07-30T03:05:44;10.65;;;2.17;;
10319;SDS011;5205;52.168;5.420;2023-07-30T03:08:11;12.35;;;2.42;;
10319;SDS011;5205;52.168;5.420;2023-07-30T03:10:39;14.30;;;2.80;;
10319;SDS011;5205;52.168;5.420;2023-07-30T03:13:06;13.50;;;2.42;;
10319;SDS011;5205;52.168;5.420;2023-07-30T03:15:33;13.55;;;2.83;;
10319;SDS011;5205;52.168;5.420;2023-07-30T03:18:00;9.15;;;2.75;;
10319;SDS011;5205;52.168;5.420;2023-07-30T03:20:27;16.52;;;3.03;;
10319;SDS011;5205;52.168;5.420;2023-07-30T03:22:56;12.07;;;2.55;;
10319;SDS011;5205;52.168;5.420;2023-07-30T03:25:23;13.85;;;2.53;;
10319;SDS011;5205;52.168;5.420;2023-07-30T03:27:50;13.63;;;2.92;;
10319;SDS011;5205;52.168;5.420;2023-07-30T03:30:17;12.73;;;2.50;;
10319;SDS011;5205;52.168;5.420;2023-07-30T03:32:44;14.60;;;2.47;;
10319;SDS011;5205;52.168;5.420;2023-07-30T03:35:12;16.50;;;2.85;;
10319;SDS011;5205;52.168;5.420;2023-07-30T03:37:39;14.82;;;3.45;;
10319;SDS011;5205;52.168;5.420;2023-07-30T03:40:08;12.40;;;2.65;;
10319;SDS011;5205;52.168;5.420;2023-07-30T03:42:35;20.40;;;3.17;;
10319;SDS011;5205;52.168;5.420;2023-07-30T03:45:02;13.45;;;2.55;;
10319;SDS011;5205;52.168;5.420;2023-07-30T03:47:30;20.02;;;3.75;;
10319;SDS011;5205;52.168;5.420;2023-07-30T03:49:57;17.80;;;3.47;;
10319;SDS011;5205;52.168;5.420;2023-07-30T03:52:24;19.70;;;3.78;;
10319;SDS011;5205;52.168;5.420;2023-07-30T03:54:51;17.98;;;3.03;;
10319;SDS011;5205;52.168;5.420;2023-07-30T03:57:19;12.93;;;3.33;;
10319;SDS011;5205;52.168;5.420;2023-07-30T03:59:47;13.23;;;3.40;;
10319;SDS011;5205;52.168;5.420;2023-07-30T04:02:14;12.77;;;3.22;;
10319;SDS011;5205;52.168;5.420;2023-07-30T04:04:42;17.80;;;3.80;;
10319;SDS011;5205;52.168;5.420;2023-07-30T04:07:09;23.17;;;3.78;;
10319;SDS011;5205;52.168;5.420;2023-07-30T04:09:36;21.08;;;4.10;;
10319;SDS011;5205;52.168;5.420;2023-07-30T04:12:04;15.50;;;3.35;;
10319;SDS011;5205;52.168;5.420;2023-07-30T04:14:32;16.48;;;4.82;;
10319;SDS011;5205;52.168;5.420;2023-07-30T04:17:00;19.05;;;2.92;;
10319;SDS011;5205;52.168;5.420;2023-07-30T04:19:27;14.82;;;3.40;;
10319;SDS011;5205;52.168;5.420;2023-07-30T04:21:54;20.17;;;3.75;;
10319;SDS011;5205;52.168;5.420;2023-07-30T04:24:21;18.10;;;3.10;;
10319;SDS011;5205;52.168;5.420;2023-07-30T04:26:48;14.80;;;3.65;;
10319;SDS011;5205;52.168;5.420;2023-07-30T04:29:15;19.08;;;3.35;;
10319;SDS011;5205;52.168;5.420;2023-07-30T04:31:44;21.38;;;4.10;;
10319;SDS011;5205;52.168;5.420;2023-07-30T04:34:11;16.88;;;3.22;;
10319;SDS011;5205;52.168;5.420;2023-07-30T04:36:38;24.50;;;4.13;;
10319;SDS011;5205;52.168;5.420;2023-07-30T04:39:05;15.20;;;3.75;;
10319;SDS011;5205;52.168;5.420;2023-07-30T04:41:33;20.67;;;3.58;;
10319;SDS011;5205;52.168;5.420;2023-07-30T04:44:00;16.42;;;3.97;;
10319;SDS011;5205;52.168;5.420;2023-07-30T04:46:27;24.27;;;4.55;;
10319;SDS011;5205;52.168;5.420;2023-07-30T04:48:56;16.92;;;3.97;;
10319;SDS011;5205;52.168;5.420;2023-07-30T04:51:23;20.65;;;4.25;;
10319;SDS011;5205;52.168;5.420;2023-07-30T04:53:50;19.35;;;4.80;;
10319;SDS011;5205;52.168;5.420;2023-07-30T04:56:17;25.63;;;4.07;;
10319;SDS011;5205;52.168;5.420;2023-07-30T04:58:44;21.25;;;4.78;;
10319;SDS011;5205;52.168;5.420;2023-07-30T05:01:11;23.05;;;3.92;;
10319;SDS011;5205;52.168;5.420;2023-07-30T05:03:39;27.05;;;4.57;;
10319;SDS011;5205;52.168;5.420;2023-07-30T05:06:07;20.50;;;3.30;;
10319;SDS011;5205;52.168;5.420;2023-07-30T05:08:34;23.10;;;4.70;;
10319;SDS011;5205;52.168;5.420;2023-07-30T05:11:01;21.20;;;4.28;;
10319;SDS011;5205;52.168;5.420;2023-07-30T05:13:28;20.85;;;4.55;;
10319;SDS011;5205;52.168;5.420;2023-07-30T05:15:56;19.83;;;4.10;;
10319;SDS011;5205;52.168;5.420;2023-07-30T05:18:23;19.55;;;5.63;;
10319;SDS011;5205;52.168;5.420;2023-07-30T05:20:50;22.65;;;4.28;;
10319;SDS011;5205;52.168;5.420;2023-07-30T05:23:19;24.52;;;5.47;;
10319;SDS011;5205;52.168;5.420;2023-07-30T05:25:46;24.48;;;5.63;;
10319;SDS011;5205;52.168;5.420;2023-07-30T05:28:13;21.90;;;5.85;;
10319;SDS011;5205;52.168;5.420;2023-07-30T05:30:40;22.58;;;4.95;;
10319;SDS011;5205;52.168;5.420;2023-07-30T05:33:07;28.50;;;4.95;;
10319;SDS011;5205;52.168;5.420;2023-07-30T05:35:34;23.45;;;4.97;;
10319;SDS011;5205;52.168;5.420;2023-07-30T05:38:02;20.38;;;4.85;;
10319;SDS011;5205;52.168;5.420;2023-07-30T05:40:30;23.58;;;4.40;;
10319;SDS011;5205;52.168;5.420;2023-07-30T05:42:57;20.17;;;4.43;;
10319;SDS011;5205;52.168;5.420;2023-07-30T05:45:25;23.77;;;5.03;;
10319;SDS011;5205;52.168;5.420;2023-07-30T05:47:53;19.58;;;4.35;;
10319;SDS011;5205;52.168;5.420;2023-07-30T05:50:20;25.20;;;4.97;;
10319;SDS011;5205;52.168;5.420;2023-07-30T05:52:47;17.45;;;4.30;;
10319;SDS011;5205;52.168;5.420;2023-07-30T05:55:14;19.13;;;4.78;;
10319;SDS011;5205;52.168;5.420;2023-07-30T05:57:42;22.73;;;5.43;;
10319;SDS011;5205;52.168;5.420;2023-07-30T06:00:10;17.90;;;4.85;;
10319;SDS011;5205;52.168;5.420;2023-07-30T06:02:37;18.17;;;4.78;;
10319;SDS011;5205;52.168;5.420;2023-07-30T06:05:04;22.58;;;5.15;;
10319;SDS011;5205;52.168;5.420;2023-07-30T06:07:31;20.45;;;5.20;;
10319;SDS011;5205;52.168;5.420;2023-07-30T06:09:58;21.60;;;4.72;;
10319;SDS011;5205;52.168;5.420;2023-07-30T06:12:26;16.55;;;5.10;;
10319;SDS011;5205;52.168;5.420;2023-07-30T06:14:54;19.58;;;4.70;;
10319;SDS011;5205;52.168;5.420;2023-07-30T06:17:21;24.00;;;5.18;;
10319;SDS011;5205;52.168;5.420;2023-07-30T06:19:48;21.73;;;4.88;;
10319;SDS011;5205;52.168;5.420;2023-07-30T06:22:15;19.13;;;4.63;;
10319;SDS011;5205;52.168;5.420;2023-07-30T06:24:43;37.15;;;6.25;;
10319;SDS011;5205;52.168;5.420;2023-07-30T06:27:10;13.43;;;4.47;;
10319;SDS011;5205;52.168;5.420;2023-07-30T06:29:37;20.42;;;5.57;;
10319;SDS011;5205;52.168;5.420;2023-07-30T06:32:06;18.98;;;4.65;;
10319;SDS011;5205;52.168;5.420;2023-07-30T06:34:33;17.92;;;5.13;;
10319;SDS011;5205;52.168;5.420;2023-07-30T06:37:01;19.50;;;5.53;;
10319;SDS011;5205;52.168;5.420;2023-07-30T06:39:28;16.98;;;5.40;;
10319;SDS011;5205;52.168;5.420;2023-07-30T06:41:55;20.55;;;5.35;;
10319;SDS011;5205;52.168;5.420;2023-07-30T06:44:22;18.42;;;6.38;;
10319;SDS011;5205;52.168;5.420;2023-07-30T06:46:50;19.92;;;6.70;;
10319;SDS011;5205;52.168;5.420;2023-07-30T06:49:18;20.67;;;5.05;;
10319;SDS011;5205;52.168;5.420;2023-07-30T06:51:46;22.48;;;5.65;;
10319;SDS011;5205;52.168;5.420;2023-07-30T06:54:13;20.42;;;5.63;;
10319;SDS011;5205;52.168;5.420;2023-07-30T06:56:40;14.60;;;4.35;;
10319;SDS011;5205;52.168;5.420;2023-07-30T06:59:08;16.30;;;4.72;;
10319;SDS011;5205;52.168;5.420;2023-07-30T07:01:35;20.00;;;5.18;;
10319;SDS011;5205;52.168;5.420;2023-07-30T07:04:02;14.27;;;4.70;;
10319;SDS011;5205;52.168;5.420;2023-07-30T07:06:30;18.20;;;4.53;;
10319;SDS011;5205;52.168;5.420;2023-07-30T07:08:58;19.75;;;4.78;;
10319;SDS011;5205;52.168;5.420;2023-07-30T07:11:25;19.17;;;4.80;;
10319;SDS011;5205;52.168;5.420;2023-07-30T07:13:52;30.13;;;4.80;;
10319;SDS011;5205;52.168;5.420;2023-07-30T07:16:19;14.00;;;3.97;;
10319;SDS011;5205;52.168;5.420;2023-07-30T07:18:46;21.58;;;5.05;;
10319;SDS011;5205;52.168;5.420;2023-07-30T07:21:14;19.08;;;4.03;;
10319;SDS011;5205;52.168;5.420;2023-07-30T07:23:42;16.83;;;4.97;;
10319;SDS011;5205;52.168;5.420;2023-07-30T07:26:10;16.30;;;3.78;;
10319;SDS011;5205;52.168;5.420;2023-07-30T07:28:37;19.67;;;3.63;;
10319;SDS011;5205;52.168;5.420;2023-07-30T07:31:04;23.70;;;3.92;;
10319;SDS011;5205;52.168;5.420;2023-07-30T07:33:31;18.50;;;4.30;;
10319;SDS011;5205;52.168;5.420;2023-07-30T07:36:04;22.77;;;3.70;;
10319;SDS011;5205;52.168;5.420;2023-07-30T07:38:32;18.27;;;3.50;;
10319;SDS011;5205;52.168;5.420;2023-07-30T07:41:00;24.67;;;3.85;;
10319;SDS011;5205;52.168;5.420;2023-07-30T07:43:28;13.40;;;3.25;;
10319;SDS011;5205;52.168;5.420;2023-07-30T07:45:55;14.75;;;3.20;;
10319;SDS011;5205;52.168;5.420;2023-07-30T07:48:22;12.80;;;3.00;;
10319;SDS011;5205;52.168;5.420;2023-07-30T07:50:49;12.20;;;3.17;;
10319;SDS011;5205;52.168;5.420;2023-07-30T07:53:16;16.33;;;3.28;;
10319;SDS011;5205;52.168;5.420;2023-07-30T07:55:43;9.65;;;2.45;;
10319;SDS011;5205;52.168;5.420;2023-07-30T07:58:12;15.75;;;2.85;;
10319;SDS011;5205;52.168;5.420;2023-07-30T08:00:39;11.10;;;2.80;;
10319;SDS011;5205;52.168;5.420;2023-07-30T08:03:06;10.75;;;3.20;;
10319;SDS011;5205;52.168;5.420;2023-07-30T08:05:33;12.35;;;2.78;;
10319;SDS011;5205;52.168;5.420;2023-07-30T08:08:01;12.05;;;3.40;;
10319;SDS011;5205;52.168;5.420;2023-07-30T08:10:28;17.98;;;3.28;;
10319;SDS011;5205;52.168;5.420;2023-07-30T08:12:55;16.13;;;4.13;;
10319;SDS011;5205;52.168;5.420;2023-07-30T08:15:24;12.80;;;3.22;;
10319;SDS011;5205;52.168;5.420;2023-07-30T08:17:51;14.73;;;3.88;;
10319;SDS011;5205;52.168;5.420;2023-07-30T08:20:18;18.10;;;3.15;;
10319;SDS011;5205;52.168;5.420;2023-07-30T08:22:45;11.50;;;2.85;;
10319;SDS011;5205;52.168;5.420;2023-07-30T08:25:12;11.15;;;2.80;;
10319;SDS011;5205;52.168;5.420;2023-07-30T08:27:39;19.92;;;3.72;;
10319;SDS011;5205;52.168;5.420;2023-07-30T08:30:07;12.35;;;2.97;;
10319;SDS011;5205;52.168;5.420;2023-07-30T08:32:35;10.20;;;3.22;;
10319;SDS011;5205;52.168;5.420;2023-07-30T08:35:03;14.77;;;3.13;;
10319;SDS011;5205;52.168;5.420;2023-07-30T08:37:30;8.95;;;2.85;;
10319;SDS011;5205;52.168;5.420;2023-07-30T08:39:57;18.83;;;3.15;;
10319;SDS011;5205;52.168;5.420;2023-07-30T08:42:24;18.50;;;3.33;;
10319;SDS011;5205;52.168;5.420;2023-07-30T08:44:51;14.15;;;3.05;;
10319;SDS011;5205;52.168;5.420;2023-07-30T08:47:18;9.95;;;2.40;;
10319;SDS011;5205;52.168;5.420;2023-07-30T08:49:47;13.52;;;3.05;;
10319;SDS011;5205;52.168;5.420;2023-07-30T08:52:14;15.77;;;2.97;;
10319;SDS011;5205;52.168;5.420;2023-07-30T08:54:43;8.57;;;2.17;;
10319;SDS011;5205;52.168;5.420;2023-07-30T08:57:11;13.77;;;2.45;;
10319;SDS011;5205;52.168;5.420;2023-07-30T08:59:39;9.52;;;2.20;;
10319;SDS011;5205;52.168;5.420;2023-07-30T09:02:09;8.20;;;2.28;;
10319;SDS011;5205;52.168;5.420;2023-07-30T09:04:38;10.65;;;1.90;;
10319;SDS011;5205;52.168;5.420;2023-07-30T09:07:09;9.00;;;2.05;;
10319;SDS011;5205;52.168;5.420;2023-07-30T09:09:38;10.80;;;1.95;;
10319;SDS011;5205;52.168;5.420;2023-07-30T09:12:10;8.77;;;2.10;;
10319;SDS011;5205;52.168;5.420;2023-07-30T09:14:42;9.10;;;1.70;;
10319;SDS011;5205;52.168;5.420;2023-07-30T09:17:11;10.27;;;2.10;;
10319;SDS011;5205;52.168;5.420;2023-07-30T09:19:41;8.25;;;1.77;;
10319;SDS011;5205;52.168;5.420;2023-07-30T09:22:09;10.75;;;2.38;;
10319;SDS011;5205;52.168;5.420;2023-07-30T09:24:36;8.60;;;1.98;;
10319;SDS011;5205;52.168;5.420;2023-07-30T09:27:08;9.75;;;2.58;;
10319;SDS011;5205;52.168;5.420;2023-07-30T09:29:35;7.63;;;1.75;;
10319;SDS011;5205;52.168;5.420;2023-07-30T09:32:02;8.68;;;2.00;;
10319;SDS011;5205;52.168;5.420;2023-07-30T09:34:29;8.35;;;2.22;;
10319;SDS011;5205;52.168;5.420;2023-07-30T09:36:57;8.90;;;2.30;;
10319;SDS011;5205;52.168;5.420;2023-07-30T09:39:25;10.25;;;2.03;;
10319;SDS011;5205;52.168;5.420;2023-07-30T09:41:58;6.93;;;1.65;;
10319;SDS011;5205;52.168;5.420;2023-07-30T09:46:53;9.20;;;1.90;;
10319;SDS011;5205;52.168;5.420;2023-07-30T09:49:20;10.30;;;2.30;;
10319;SDS011;5205;52.168;5.420;2023-07-30T09:51:47;10.95;;;2.28;;
10319;SDS011;5205;52.168;5.420;2023-07-30T09:54:30;6.55;;;2.08;;
10319;SDS011;5205;52.168;5.420;2023-07-30T09:56:58;8.45;;;1.95;;
10319;SDS011;5205;52.168;5.420;2023-07-30T09:59:25;9.95;;;2.10;;
10319;SDS011;5205;52.168;5.420;2023-07-30T10:01:53;12.15;;;2.10;;
10319;SDS011;5205;52.168;5.420;2023-07-30T10:04:21;8.98;;;1.65;;
10319;SDS011;5205;52.168;5.420;2023-07-30T10:06:49;8.63;;;1.60;;
10319;SDS011;5205;52.168;5.420;2023-07-30T10:09:18;7.97;;;1.92;;
10319;SDS011;5205;52.168;5.420;2023-07-30T10:11:49;6.93;;;2.00;;
10319;SDS011;5205;52.168;5.420;2023-07-30T10:14:17;4.80;;;1.60;;
10319;SDS011;5205;52.168;5.420;2023-07-30T10:16:51;9.52;;;1.73;;
10319;SDS011;5205;52.168;5.420;2023-07-30T10:19:21;10.80;;;3.40;;
10319;SDS011;5205;52.168;5.420;2023-07-30T10:21:49;6.65;;;2.00;;
10319;SDS011;5205;52.168;5.420;2023-07-30T10:24:16;10.32;;;2.30;;
10319;SDS011;5205;52.168;5.420;2023-07-30T10:26:43;13.77;;;4.57;;
10319;SDS011;5205;52.168;5.420;2023-07-30T10:29:13;8.55;;;2.03;;
10319;SDS011;5205;52.168;5.420;2023-07-30T10:31:41;7.22;;;1.38;;
10319;SDS011;5205;52.168;5.420;2023-07-30T10:34:08;5.55;;;1.65;;
10319;SDS011;5205;52.168;5.420;2023-07-30T10:36:43;6.90;;;1.75;;
10319;SDS011;5205;52.168;5.420;2023-07-30T10:39:11;5.03;;;1.10;;
10319;SDS011;5205;52.168;5.420;2023-07-30T10:41:42;5.80;;;1.42;;
10319;SDS011;5205;52.168;5.420;2023-07-30T10:44:18;11.52;;;1.77;;
10319;SDS011;5205;52.168;5.420;2023-07-30T10:46:45;8.90;;;1.55;;
10319;SDS011;5205;52.168;5.420;2023-07-30T10:49:12;6.20;;;1.20;;
10319;SDS011;5205;52.168;5.420;2023-07-30T10:51:39;5.65;;;1.17;;
10319;SDS011;5205;52.168;5.420;2023-07-30T10:54:07;5.57;;;1.50;;
10319;SDS011;5205;52.168;5.420;2023-07-30T10:56:34;9.25;;;1.88;;
10319;SDS011;5205;52.168;5.420;2023-07-30T10:59:03;8.02;;;1.60;;
10319;SDS011;5205;52.168;5.420;2023-07-30T11:01:31;10.73;;;1.40;;
10319;SDS011;5205;52.168;5.420;2023-07-30T11:06:29;12.90;;;2.25;;
10319;SDS011;5205;52.168;5.420;2023-07-30T11:08:56;5.45;;;1.10;;
10319;SDS011;5205;52.168;5.420;2023-07-30T11:11:23;3.03;;;1.30;;
10319;SDS011;5205;52.168;5.420;2023-07-30T11:13:51;6.32;;;1.20;;
10319;SDS011;5205;52.168;5.420;2023-07-30T11:16:18;5.35;;;1.45;;
10319;SDS011;5205;52.168;5.420;2023-07-30T11:18:47;6.30;;;1.50;;
10319;SDS011;5205;52.168;5.420;2023-07-30T11:21:15;5.75;;;1.40;;
10319;SDS011;5205;52.168;5.420;2023-07-30T11:23:42;3.63;;;1.00;;
10319;SDS011;5205;52.168;5.420;2023-07-30T11:26:13;6.82;;;1.60;;
10319;SDS011;5205;52.168;5.420;2023-07-30T11:28:40;6.88;;;1.20;;
10319;SDS011;5205;52.168;5.420;2023-07-30T11:31:08;8.10;;;1.40;;
10319;SDS011;5205;52.168;5.420;2023-07-30T11:33:36;4.63;;;1.00;;
10319;SDS011;5205;52.168;5.420;2023-07-30T11:36:06;6.43;;;1.10;;
10319;SDS011;5205;52.168;5.420;2023-07-30T11:38:34;4.47;;;1.20;;
10319;SDS011;5205;52.168;5.420;2023-07-30T11:41:01;4.22;;;1.40;;
10319;SDS011;5205;52.168;5.420;2023-07-30T11:43:30;5.18;;;1.30;;
10319;SDS011;5205;52.168;5.420;2023-07-30T11:46:11;3.85;;;0.88;;
10319;SDS011;5205;52.168;5.420;2023-07-30T11:48:38;5.95;;;1.38;;
10319;SDS011;5205;52.168;5.420;2023-07-30T11:51:07;8.15;;;1.38;;
10319;SDS011;5205;52.168;5.420;2023-07-30T11:53:44;3.28;;;0.95;;
10319;SDS011;5205;52.168;5.420;2023-07-30T11:56:19;3.15;;;0.98;;
10319;SDS011;5205;52.168;5.420;2023-07-30T11:58:47;6.22;;;1.48;;
10319;SDS011;5205;52.168;5.420;2023-07-30T12:01:14;5.15;;;1.30;;
10319;SDS011;5205;52.168;5.420;2023-07-30T12:03:42;4.85;;;0.90;;
10319;SDS011;5205;52.168;5.420;2023-07-30T12:06:10;5.18;;;1.15;;
10319;SDS011;5205;52.168;5.420;2023-07-30T12:08:38;8.63;;;1.70;;
10319;SDS011;5205;52.168;5.420;2023-07-30T12:11:06;4.78;;;1.27;;
10319;SDS011;5205;52.168;5.420;2023-07-30T12:13:33;3.67;;;1.20;;
10319;SDS011;5205;52.168;5.420;2023-07-30T12:16:01;5.18;;;0.88;;
10319;SDS011;5205;52.168;5.420;2023-07-30T12:18:28;6.45;;;1.23;;
10319;SDS011;5205;52.168;5.420;2023-07-30T12:20:56;4.20;;;1.17;;
10319;SDS011;5205;52.168;5.420;2023-07-30T12:23:24;9.45;;;1.30;;
10319;SDS011;5205;52.168;5.420;2023-07-30T12:25:51;3.65;;;1.27;;
10319;SDS011;5205;52.168;5.420;2023-07-30T12:28:18;4.55;;;1.30;;
10319;SDS011;5205;52.168;5.420;2023-07-30T12:30:45;6.90;;;1.40;;
10319;SDS011;5205;52.168;5.420;2023-07-30T12:33:13;2.78;;;0.85;;
10319;SDS011;5205;52.168;5.420;2023-07-30T12:35:40;4.32;;;0.95;;
10319;SDS011;5205;52.168;5.420;2023-07-30T12:38:07;6.18;;;1.20;;
10319;SDS011;5205;52.168;5.420;2023-07-30T12:40:36;3.15;;;0.90;;
10319;SDS011;5205;52.168;5.420;2023-07-30T12:43:03;7.53;;;0.95;;
10319;SDS011;5205;52.168;5.420;2023-07-30T12:45:31;6.90;;;2.00;;
10319;SDS011;5205;52.168;5.420;2023-07-30T12:47:58;3.38;;;1.20;;
10319;SDS011;5205;52.168;5.420;2023-07-30T12:50:25;6.00;;;1.10;;
10319;SDS011;5205;52.168;5.420;2023-07-30T12:52:52;3.75;;;0.73;;
10319;SDS011;5205;52.168;5.420;2023-07-30T12:55:19;3.10;;;1.00;;
10319;SDS011;5205;52.168;5.420;2023-07-30T12:57:48;5.47;;;1.10;;
10319;SDS011;5205;52.168;5.420;2023-07-30T13:00:15;5.90;;;1.00;;
10319;SDS011;5205;52.168;5.420;2023-07-30T13:02:43;3.63;;;0.60;;
10319;SDS011;5205;52.168;5.420;2023-07-30T13:05:10;3.42;;;0.98;;
10319;SDS011;5205;52.168;5.420;2023-07-30T13:07:38;3.78;;;0.90;;
10319;SDS011;5205;52.168;5.420;2023-07-30T13:10:06;6.13;;;1.30;;
10319;SDS011;5205;52.168;5.420;2023-07-30T13:12:34;3.38;;;0.70;;
10319;SDS011;5205;52.168;5.420;2023-07-30T13:15:02;3.33;;;0.75;;
10319;SDS011;5205;52.168;5.420;2023-07-30T13:17:30;5.30;;;1.88;;
10319;SDS011;5205;52.168;5.420;2023-07-30T13:19:57;7.63;;;2.13;;
10319;SDS011;5205;52.168;5.420;2023-07-30T13:22:24;5.20;;;1.77;;
10319;SDS011;5205;52.168;5.420;2023-07-30T13:24:51;8.13;;;1.98;;
10319;SDS011;5205;52.168;5.420;2023-07-30T13:27:19;4.50;;;1.08;;
10319;SDS011;5205;52.168;5.420;2023-07-30T13:29:46;3.13;;;0.70;;
10319;SDS011;5205;52.168;5.420;2023-07-30T13:32:15;2.95;;;1.60;;
10319;SDS011;5205;52.168;5.420;2023-07-30T13:34:42;4.18;;;1.27;;
10319;SDS011;5205;52.168;5.420;2023-07-30T13:37:10;4.15;;;0.75;;
10319;SDS011;5205;52.168;5.420;2023-07-30T13:39:38;7.15;;;1.08;;
10319;SDS011;5205;52.168;5.420;2023-07-30T13:42:06;12.10;;;1.45;;
10319;SDS011;5205;52.168;5.420;2023-07-30T13:44:33;2.47;;;0.65;;
10319;SDS011;5205;52.168;5.420;2023-07-30T13:47:00;3.33;;;0.70;;
10319;SDS011;5205;52.168;5.420;2023-07-30T13:49:29;5.30;;;0.98;;
10319;SDS011;5205;52.168;5.420;2023-07-30T13:51:59;4.82;;;1.00;;
10319;SDS011;5205;52.168;5.420;2023-07-30T13:54:26;6.75;;;1.15;;
10319;SDS011;5205;52.168;5.420;2023-07-30T13:56:53;3.63;;;1.05;;
10319;SDS011;5205;52.168;5.420;2023-07-30T13:59:20;4.25;;;1.02;;
10319;SDS011;5205;52.168;5.420;2023-07-30T14:01:49;8.43;;;1.10;;
10319;SDS011;5205;52.168;5.420;2023-07-30T14:04:20;6.43;;;1.60;;
10319;SDS011;5205;52.168;5.420;2023-07-30T14:06:48;3.58;;;1.00;;
10319;SDS011;5205;52.168;5.420;2023-07-30T14:09:15;6.78;;;1.20;;
10319;SDS011;5205;52.168;5.420;2023-07-30T14:11:43;8.40;;;1.23;;
10319;SDS011;5205;52.168;5.420;2023-07-30T14:14:10;2.72;;;1.00;;
10319;SDS011;5205;52.168;5.420;2023-07-30T14:16:37;4.20;;;1.05;;
10319;SDS011;5205;52.168;5.420;2023-07-30T14:19:05;7.15;;;1.08;;
10319;SDS011;5205;52.168;5.420;2023-07-30T14:21:32;3.67;;;0.90;;
10319;SDS011;5205;52.168;5.420;2023-07-30T14:24:00;5.18;;;1.02;;
10319;SDS011;5205;52.168;5.420;2023-07-30T14:26:27;7.03;;;1.33;;
10319;SDS011;5205;52.168;5.420;2023-07-30T14:28:55;8.82;;;1.10;;
10319;SDS011;5205;52.168;5.420;2023-07-30T14:31:22;6.22;;;1.40;;
10319;SDS011;5205;52.168;5.420;2023-07-30T14:33:49;6.65;;;1.40;;
10319;SDS011;5205;52.168;5.420;2023-07-30T14:36:16;5.20;;;1.17;;
10319;SDS011;5205;52.168;5.420;2023-07-30T14:38:43;3.67;;;0.93;;
10319;SDS011;5205;52.168;5.420;2023-07-30T14:41:13;6.32;;;1.10;;
10319;SDS011;5205;52.168;5.420;2023-07-30T14:43:40;2.95;;;0.90;;
10319;SDS011;5205;52.168;5.420;2023-07-30T14:46:08;5.03;;;1.05;;
10319;SDS011;5205;52.168;5.420;2023-07-30T14:48:38;5.60;;;1.38;;
10319;SDS011;5205;52.168;5.420;2023-07-30T14:51:05;4.78;;;1.30;;
10319;SDS011;5205;52.168;5.420;2023-07-30T14:53:33;7.25;;;2.15;;
10319;SDS011;5205;52.168;5.420;2023-07-30T14:56:00;6.97;;;2.50;;
10319;SDS011;5205;52.168;5.420;2023-07-30T14:58:29;9.40;;;1.83;;
10319;SDS011;5205;52.168;5.420;2023-07-30T15:00:56;10.27;;;3.50;;
10319;SDS011;5205;52.168;5.420;2023-07-30T15:03:23;8.80;;;2.03;;